createdAt,value
2023-05-03T00:00:15.890Z,2.43
2023-05-03T00:01:15.881Z,2.38
2023-05-03T00:02:15.932Z,2.38
2023-05-03T00:03:15.906Z,2.38
2023-05-03T00:04:15.892Z,2.32
2023-05-03T00:05:15.901Z,2.36
2023-05-03T00:06:15.894Z,2.29
2023-05-03T00:07:15.839Z,2.32
2023-05-03T00:08:15.840Z,2.28
2023-05-03T00:09:15.841Z,2.33
2023-05-03T00:10:15.875Z,2.29
2023-05-03T00:11:15.817Z,2.32
2023-05-03T00:12:15.800Z,2.29
2023-05-03T00:13:15.791Z,2.22
2023-05-03T00:14:15.811Z,2.28
2023-05-03T00:15:15.778Z,2.31
2023-05-03T00:16:15.780Z,2.22
2023-05-03T00:17:15.805Z,2.26
2023-05-03T00:18:15.756Z,2.29
2023-05-03T00:19:30.375Z,2.24
2023-05-03T00:20:17.740Z,2.28
2023-05-03T00:21:15.732Z,2.20
2023-05-03T00:22:15.726Z,2.24
2023-05-03T00:23:15.763Z,2.20
2023-05-03T00:24:15.736Z,2.24
2023-05-03T00:25:15.702Z,2.26
2023-05-03T00:26:15.698Z,2.31
2023-05-03T00:27:15.694Z,2.31
2023-05-03T00:28:15.680Z,2.32
2023-05-03T00:29:15.696Z,2.36
2023-05-03T00:30:15.672Z,2.33
2023-05-03T00:31:15.656Z,2.31
2023-05-03T00:32:16.646Z,2.31
2023-05-03T00:33:15.647Z,2.24
2023-05-03T00:34:15.663Z,2.33
2023-05-03T00:35:15.634Z,2.31
2023-05-03T00:36:15.653Z,2.15
2023-05-03T00:37:15.617Z,2.20
2023-05-03T00:38:15.631Z,2.26
2023-05-03T00:39:15.622Z,2.33
2023-05-03T00:40:15.581Z,2.17
2023-05-03T00:41:15.584Z,2.04
2023-05-03T00:42:15.571Z,2.11
2023-05-03T00:43:15.571Z,2.14
2023-05-03T00:44:15.586Z,2.02
2023-05-03T00:45:15.557Z,2.14
2023-05-03T00:46:17.118Z,2.08
2023-05-03T00:47:16.681Z,2.10
2023-05-03T00:48:15.533Z,1.97
2023-05-03T00:49:15.550Z,2.07
2023-05-03T00:50:15.518Z,1.95
2023-05-03T00:51:15.505Z,1.95
2023-05-03T00:52:15.499Z,2.06
2023-05-03T00:53:15.485Z,1.89
2023-05-03T00:54:15.509Z,1.95
2023-05-03T00:55:15.472Z,2.00
2023-05-03T00:56:15.476Z,2.00
2023-05-03T00:57:15.459Z,1.97
2023-05-03T00:58:15.457Z,1.91
2023-05-03T00:59:15.489Z,1.91
2023-05-03T01:00:15.442Z,1.94
2023-05-03T01:01:15.485Z,1.87
2023-05-03T01:02:15.430Z,1.68
2023-05-03T01:03:15.462Z,1.88
2023-05-03T01:04:15.440Z,1.88
2023-05-03T01:05:15.408Z,1.84
2023-05-03T01:06:15.475Z,1.81
2023-05-03T01:07:15.402Z,1.78
2023-05-03T01:08:15.381Z,1.73
2023-05-03T01:09:15.405Z,1.76
2023-05-03T01:10:15.373Z,1.70
2023-05-03T01:11:15.383Z,1.68
2023-05-03T01:12:15.359Z,1.73
2023-05-03T01:13:15.348Z,1.67
2023-05-03T01:14:15.333Z,1.71
2023-05-03T01:15:15.329Z,1.58
2023-05-03T01:16:15.387Z,1.70
2023-05-03T01:17:15.324Z,1.62
2023-05-03T01:18:15.335Z,1.59
2023-05-03T01:19:15.291Z,1.74
2023-05-03T01:20:15.315Z,1.59
2023-05-03T01:21:15.316Z,1.55
2023-05-03T01:22:15.275Z,1.63
2023-05-03T01:23:15.271Z,1.58
2023-05-03T01:24:15.269Z,1.52
2023-05-03T01:25:15.287Z,1.58
2023-05-03T01:26:15.256Z,1.53
2023-05-03T01:27:15.228Z,1.49
2023-05-03T01:28:15.227Z,1.52
2023-05-03T01:29:15.218Z,1.49
2023-05-03T01:30:15.244Z,1.42
2023-05-03T01:31:15.261Z,1.42
2023-05-03T01:32:15.193Z,1.35
2023-05-03T01:33:15.183Z,1.37
2023-05-03T01:34:15.176Z,1.38
2023-05-03T01:35:15.195Z,1.45
2023-05-03T01:36:15.165Z,1.45
2023-05-03T01:37:15.161Z,1.38
2023-05-03T01:38:15.161Z,1.42
2023-05-03T01:39:15.137Z,1.35
2023-05-03T01:40:15.161Z,1.48
2023-05-03T01:41:15.125Z,1.37
2023-05-03T01:42:15.120Z,1.44
2023-05-03T01:43:15.109Z,1.40
2023-05-03T01:44:15.132Z,1.30
2023-05-03T01:45:15.467Z,1.41
2023-05-03T01:46:15.116Z,1.41
2023-05-03T01:47:15.118Z,1.32
2023-05-03T01:48:15.082Z,1.35
2023-05-03T01:49:15.098Z,1.26
2023-05-03T01:50:15.061Z,1.23
2023-05-03T01:51:15.054Z,1.26
2023-05-03T01:52:15.043Z,1.22
2023-05-03T01:53:15.055Z,1.30
2023-05-03T01:54:15.061Z,1.23
2023-05-03T01:55:15.024Z,1.34
2023-05-03T01:56:15.011Z,1.28
2023-05-03T01:57:15.006Z,1.20
2023-05-03T01:58:15.022Z,1.22
2023-05-03T01:59:15.019Z,1.28
2023-05-03T02:00:14.992Z,1.22
2023-05-03T02:01:15.004Z,1.22
2023-05-03T02:02:14.977Z,1.30
2023-05-03T02:03:14.977Z,1.28
2023-05-03T02:04:15.998Z,1.16
2023-05-03T02:05:14.944Z,1.10
2023-05-03T02:06:14.956Z,1.19
2023-05-03T02:07:14.935Z,1.26
2023-05-03T02:08:14.954Z,1.22
2023-05-03T02:09:14.926Z,1.30
2023-05-03T02:10:15.087Z,1.19
2023-05-03T02:11:14.890Z,1.13
2023-05-03T02:12:14.887Z,1.20
2023-05-03T02:13:14.914Z,1.20
2023-05-03T02:14:14.882Z,1.17
2023-05-03T02:15:14.878Z,1.10
2023-05-03T02:16:14.875Z,1.01
2023-05-03T02:17:14.856Z,1.08
2023-05-03T02:18:14.859Z,1.10
2023-05-03T02:19:15.837Z,1.17
2023-05-03T02:20:14.826Z,1.12
2023-05-03T02:21:14.823Z,1.06
2023-05-03T02:22:14.841Z,1.05
2023-05-03T02:23:14.861Z,1.04
2023-05-03T02:24:14.808Z,0.98
2023-05-03T02:25:14.830Z,0.99
2023-05-03T02:26:14.781Z,1.01
2023-05-03T02:27:14.808Z,1.04
2023-05-03T02:28:14.778Z,0.92
2023-05-03T02:29:14.778Z,0.95
2023-05-03T02:30:14.752Z,0.95
2023-05-03T02:31:14.765Z,0.88
2023-05-03T02:32:14.769Z,0.86
2023-05-03T02:33:14.738Z,0.86
2023-05-03T02:34:14.731Z,0.84
2023-05-03T02:35:14.731Z,0.88
2023-05-03T02:36:14.717Z,0.88
2023-05-03T02:37:14.739Z,0.92
2023-05-03T02:38:14.695Z,0.81
2023-05-03T02:39:14.692Z,0.91
2023-05-03T02:40:14.685Z,0.84
2023-05-03T02:41:14.669Z,0.80
2023-05-03T02:42:14.690Z,0.88
2023-05-03T02:43:14.675Z,0.87
2023-05-03T02:44:14.655Z,0.87
2023-05-03T02:45:14.647Z,0.73
2023-05-03T02:46:14.711Z,0.74
2023-05-03T02:47:14.664Z,0.84
2023-05-03T02:48:14.637Z,0.78
2023-05-03T02:49:14.616Z,0.74
2023-05-03T02:50:14.612Z,0.78
2023-05-03T02:51:14.675Z,0.73
2023-05-03T02:52:14.618Z,0.74
2023-05-03T02:53:14.611Z,0.66
2023-05-03T02:54:14.580Z,0.70
2023-05-03T02:55:14.600Z,0.76
2023-05-03T02:56:14.598Z,0.66
2023-05-03T02:57:14.578Z,0.63
2023-05-03T02:58:14.545Z,0.73
2023-05-03T02:59:14.636Z,0.70
2023-05-03T03:00:14.546Z,0.65
2023-05-03T03:01:14.619Z,0.63
2023-05-03T03:02:14.521Z,0.62
2023-05-03T03:03:14.628Z,0.66
2023-05-03T03:04:14.503Z,0.66
2023-05-03T03:05:14.502Z,0.60
2023-05-03T03:06:14.529Z,0.59
2023-05-03T03:07:14.475Z,0.63
2023-05-03T03:08:14.469Z,0.62
2023-05-03T03:09:14.454Z,0.68
2023-05-03T03:10:14.478Z,0.62
2023-05-03T03:11:14.465Z,0.56
2023-05-03T03:12:14.436Z,0.55
2023-05-03T03:13:14.427Z,0.49
2023-05-03T03:14:14.421Z,0.65
2023-05-03T03:15:14.443Z,0.63
2023-05-03T03:16:14.451Z,0.59
2023-05-03T03:17:14.402Z,0.58
2023-05-03T03:18:14.390Z,0.55
2023-05-03T03:19:14.393Z,0.50
2023-05-03T03:20:14.397Z,0.60
2023-05-03T03:21:14.372Z,0.58
2023-05-03T03:22:14.365Z,0.44
2023-05-03T03:23:14.352Z,0.55
2023-05-03T03:24:14.371Z,0.49
2023-05-03T03:25:14.369Z,0.52
2023-05-03T03:26:14.333Z,0.52
2023-05-03T03:27:14.321Z,0.52
2023-05-03T03:28:14.313Z,0.55
2023-05-03T03:29:14.333Z,0.37
2023-05-03T03:30:14.324Z,0.47
2023-05-03T03:31:14.310Z,0.58
2023-05-03T03:32:14.286Z,0.55
2023-05-03T03:33:14.314Z,0.40
2023-05-03T03:34:14.290Z,0.52
2023-05-03T03:35:14.270Z,0.58
2023-05-03T03:36:14.253Z,0.43
2023-05-03T03:37:14.248Z,0.49
2023-05-03T03:38:14.263Z,0.39
2023-05-03T03:39:14.256Z,0.41
2023-05-03T03:40:14.219Z,0.39
2023-05-03T03:41:14.230Z,0.36
2023-05-03T03:42:14.208Z,0.39
2023-05-03T03:43:14.254Z,0.41
2023-05-03T03:44:14.205Z,0.46
2023-05-03T03:45:14.189Z,0.47
2023-05-03T03:46:14.180Z,0.39
2023-05-03T03:47:14.377Z,0.49
2023-05-03T03:48:14.218Z,0.46
2023-05-03T03:49:14.153Z,0.49
2023-05-03T03:50:14.156Z,0.46
2023-05-03T03:51:14.141Z,0.50
2023-05-03T03:52:14.142Z,0.49
2023-05-03T03:53:14.148Z,0.56
2023-05-03T03:54:14.117Z,0.49
2023-05-03T03:55:14.105Z,0.46
2023-05-03T03:56:14.102Z,0.58
2023-05-03T03:57:14.119Z,0.55
2023-05-03T03:58:14.116Z,0.55
2023-05-03T03:59:14.087Z,0.59
2023-05-03T04:00:14.079Z,0.60
2023-05-03T04:01:14.069Z,0.69
2023-05-03T04:02:14.120Z,0.68
2023-05-03T04:03:14.137Z,0.73
2023-05-03T04:04:14.218Z,0.76
2023-05-03T04:05:14.038Z,0.73
2023-05-03T04:06:14.101Z,0.81
2023-05-03T04:07:14.052Z,0.87
2023-05-03T04:08:14.018Z,0.83
2023-05-03T04:09:14.003Z,0.81
2023-05-03T04:10:13.997Z,0.92
2023-05-03T04:11:14.013Z,1.01
2023-05-03T04:12:14.007Z,1.01
2023-05-03T04:13:13.979Z,1.04
2023-05-03T04:14:13.967Z,0.98
2023-05-03T04:15:13.984Z,1.08
2023-05-03T04:16:13.980Z,1.12
2023-05-03T04:17:14.100Z,1.20
2023-05-03T04:18:13.965Z,1.19
2023-05-03T04:19:13.948Z,1.24
2023-05-03T04:20:14.040Z,1.24
2023-05-03T04:21:13.937Z,1.40
2023-05-03T04:22:13.908Z,1.32
2023-05-03T04:23:13.897Z,1.44
2023-05-03T04:24:13.892Z,1.49
2023-05-03T04:25:13.931Z,1.62
2023-05-03T04:26:27.489Z,1.66
2023-05-03T04:27:15.877Z,1.70
2023-05-03T04:28:13.883Z,1.78
2023-05-03T04:29:13.855Z,1.81
2023-05-03T04:30:13.862Z,1.78
2023-05-03T04:31:13.895Z,1.88
2023-05-03T04:32:13.828Z,1.92
2023-05-03T04:33:13.954Z,1.97
2023-05-03T04:34:13.813Z,1.89
2023-05-03T04:35:13.831Z,1.94
2023-05-03T04:36:13.798Z,2.10
2023-05-03T04:37:13.794Z,2.17
2023-05-03T04:38:13.781Z,2.22
2023-05-03T04:39:13.774Z,2.18
2023-05-03T04:40:13.792Z,2.26
2023-05-03T04:41:15.947Z,2.22
2023-05-03T04:42:13.756Z,2.25
2023-05-03T04:43:13.755Z,2.33
2023-05-03T04:44:13.753Z,2.32
2023-05-03T04:45:13.764Z,2.43
2023-05-03T04:46:13.765Z,2.42
2023-05-03T04:47:13.712Z,2.44
2023-05-03T04:48:13.908Z,2.54
2023-05-03T04:49:13.700Z,2.60
2023-05-03T04:50:13.718Z,2.57
2023-05-03T04:51:14.686Z,2.69
2023-05-03T04:52:13.684Z,2.75
2023-05-03T04:53:13.675Z,2.92
2023-05-03T04:54:13.698Z,3.05
2023-05-03T04:55:13.677Z,3.29
2023-05-03T04:56:13.640Z,3.45
2023-05-03T04:57:13.643Z,3.60
2023-05-03T04:58:13.635Z,3.77
2023-05-03T04:59:13.636Z,3.98
2023-05-03T05:00:13.654Z,3.92
2023-05-03T05:01:13.658Z,4.10
2023-05-03T05:02:13.603Z,4.02
2023-05-03T05:03:13.656Z,4.05
2023-05-03T05:04:13.604Z,3.96
2023-05-03T05:05:14.601Z,3.74
2023-05-03T05:06:13.631Z,3.76
2023-05-03T05:07:13.556Z,3.80
2023-05-03T05:08:13.574Z,3.65
2023-05-03T05:09:13.572Z,3.81
2023-05-03T05:10:13.528Z,3.76
2023-05-03T05:11:13.523Z,3.74
2023-05-03T05:12:13.532Z,3.65
2023-05-03T05:13:13.540Z,3.76
2023-05-03T05:14:13.524Z,3.70
2023-05-03T05:15:13.494Z,3.65
2023-05-03T05:16:13.485Z,3.51
2023-05-03T05:17:13.498Z,3.59
2023-05-03T05:18:13.516Z,3.68
2023-05-03T05:19:13.482Z,3.69
2023-05-03T05:20:13.487Z,3.80
2023-05-03T05:21:13.453Z,3.87
2023-05-03T05:22:13.440Z,4.05
2023-05-03T05:23:13.428Z,4.19
2023-05-03T05:24:13.450Z,4.37
2023-05-03T05:25:13.455Z,4.52
2023-05-03T05:26:13.406Z,4.67
2023-05-03T05:27:13.395Z,4.71
2023-05-03T05:28:13.411Z,4.71
2023-05-03T05:29:13.404Z,4.70
2023-05-03T05:30:13.375Z,4.96
2023-05-03T05:31:13.509Z,5.15
2023-05-03T05:32:13.361Z,5.51
2023-05-03T05:33:13.433Z,5.97
2023-05-03T05:34:13.409Z,6.08
2023-05-03T05:35:13.326Z,6.36
2023-05-03T05:36:13.325Z,6.27
2023-05-03T05:37:13.329Z,6.33
2023-05-03T05:38:13.340Z,6.66
2023-05-03T05:39:13.306Z,6.84
2023-05-03T05:40:13.293Z,7.13
2023-05-03T05:41:13.301Z,7.57
2023-05-03T05:42:13.278Z,8.01
2023-05-03T05:43:13.296Z,8.64
2023-05-03T05:44:13.293Z,9.00
2023-05-03T05:45:13.265Z,9.69
2023-05-03T05:46:13.245Z,10.04
2023-05-03T05:47:13.281Z,10.57
2023-05-03T05:48:13.329Z,10.87
2023-05-03T05:49:13.219Z,10.92
2023-05-03T05:50:18.249Z,10.96
2023-05-03T05:51:15.230Z,11.02
2023-05-03T05:52:13.255Z,11.36
2023-05-03T05:53:13.208Z,11.65
2023-05-03T05:54:13.188Z,11.87
2023-05-03T05:55:13.175Z,12.27
2023-05-03T05:56:13.177Z,12.45
2023-05-03T05:57:13.191Z,12.94
2023-05-03T05:58:13.160Z,13.50
2023-05-03T05:59:13.157Z,13.92
2023-05-03T06:00:13.207Z,14.36
2023-05-03T06:01:13.162Z,14.85
2023-05-03T06:02:13.177Z,14.84
2023-05-03T06:03:13.186Z,14.89
2023-05-03T06:04:13.114Z,15.72
2023-05-03T06:05:13.160Z,15.98
2023-05-03T06:06:13.149Z,16.21
2023-05-03T06:07:13.084Z,16.43
2023-05-03T06:08:13.074Z,16.53
2023-05-03T06:09:24.261Z,17.04
2023-05-03T06:10:15.118Z,17.31
2023-05-03T06:11:13.098Z,17.34
2023-05-03T06:12:13.052Z,17.08
2023-05-03T06:13:13.044Z,16.87
2023-05-03T06:14:13.032Z,17.20
2023-05-03T06:15:13.036Z,17.42
2023-05-03T06:16:13.048Z,17.15
2023-05-03T06:17:13.132Z,17.34
2023-05-03T06:18:13.161Z,17.51
2023-05-03T06:19:12.996Z,17.90
2023-05-03T06:20:13.102Z,17.68
2023-05-03T06:21:13.000Z,17.94
2023-05-03T06:22:12.977Z,17.76
2023-05-03T06:23:12.964Z,17.98
2023-05-03T06:24:13.032Z,17.87
2023-05-03T06:25:15.098Z,18.05
2023-05-03T06:26:12.948Z,18.29
2023-05-03T06:27:12.933Z,18.62
2023-05-03T06:28:12.929Z,18.96
2023-05-03T06:29:12.924Z,18.86
2023-05-03T06:30:12.959Z,18.70
2023-05-03T06:31:12.941Z,18.55
2023-05-03T06:32:12.921Z,18.65
2023-05-03T06:33:12.962Z,18.74
2023-05-03T06:34:12.887Z,18.92
2023-05-03T06:35:12.907Z,18.35
2023-05-03T06:36:12.873Z,18.08
2023-05-03T06:37:12.883Z,17.29
2023-05-03T06:38:12.862Z,16.90
2023-05-03T06:39:12.867Z,16.65
2023-05-03T06:40:12.866Z,16.36
2023-05-03T06:41:12.841Z,15.86
2023-05-03T06:42:12.841Z,16.21
2023-05-03T06:43:12.842Z,16.56
2023-05-03T06:44:12.817Z,16.74
2023-05-03T06:45:12.849Z,16.93
2023-05-03T06:46:12.866Z,15.98
2023-05-03T06:47:12.814Z,15.61
2023-05-03T06:48:12.929Z,15.49
2023-05-03T06:49:12.790Z,15.21
2023-05-03T06:50:12.816Z,14.63
2023-05-03T06:51:12.767Z,14.28
2023-05-03T06:52:12.769Z,14.37
2023-05-03T06:53:12.755Z,14.91
2023-05-03T06:54:12.772Z,15.02
2023-05-03T06:55:12.825Z,15.37
2023-05-03T06:56:12.737Z,15.57
2023-05-03T06:57:12.725Z,15.49
2023-05-03T06:58:12.721Z,15.92
2023-05-03T06:59:12.751Z,16.08
2023-05-03T07:00:12.700Z,16.38
2023-05-03T07:01:12.713Z,16.21
2023-05-03T07:02:12.713Z,16.50
2023-05-03T07:03:12.762Z,17.29
2023-05-03T07:04:12.780Z,17.26
2023-05-03T07:05:12.676Z,17.27
2023-05-03T07:06:12.692Z,17.04
2023-05-03T07:07:12.716Z,17.02
2023-05-03T07:08:12.652Z,16.91
2023-05-03T07:09:12.668Z,17.49
2023-05-03T07:10:12.665Z,17.76
2023-05-03T07:11:12.637Z,18.19
2023-05-03T07:12:12.627Z,17.42
2023-05-03T07:13:12.639Z,17.11
2023-05-03T07:14:12.653Z,16.87
2023-05-03T07:15:12.607Z,16.61
2023-05-03T07:16:12.629Z,16.43
2023-05-03T07:17:12.615Z,16.26
2023-05-03T07:18:12.690Z,16.43
2023-05-03T07:19:12.676Z,16.57
2023-05-03T07:20:12.557Z,17.05
2023-05-03T07:21:12.554Z,16.78
2023-05-03T07:22:12.551Z,17.12
2023-05-03T07:23:12.645Z,16.42
2023-05-03T07:24:12.564Z,16.31
2023-05-03T07:25:12.651Z,16.47
2023-05-03T07:26:12.537Z,16.53
2023-05-03T07:27:12.538Z,16.65
2023-05-03T07:28:12.537Z,16.57
2023-05-03T07:29:12.512Z,16.68
2023-05-03T07:30:12.516Z,16.41
2023-05-03T07:31:12.544Z,16.69
2023-05-03T07:32:12.535Z,16.83
2023-05-03T07:33:12.713Z,16.64
2023-05-03T07:34:12.467Z,16.83
2023-05-03T07:35:12.455Z,16.68
2023-05-03T07:36:12.457Z,16.41
2023-05-03T07:37:12.480Z,16.13
2023-05-03T07:38:12.445Z,15.82
2023-05-03T07:39:12.436Z,16.09
2023-05-03T07:40:12.422Z,15.91
2023-05-03T07:41:12.435Z,15.76
2023-05-03T07:42:12.459Z,15.65
2023-05-03T07:43:12.418Z,15.61
2023-05-03T07:44:12.479Z,15.59
2023-05-03T07:45:12.395Z,15.91
2023-05-03T07:46:12.509Z,16.17
2023-05-03T07:47:12.498Z,16.31
2023-05-03T07:48:12.406Z,16.56
2023-05-03T07:49:12.486Z,16.72
2023-05-03T07:50:12.361Z,16.84
2023-05-03T07:51:12.370Z,17.36
2023-05-03T07:52:12.421Z,17.38
2023-05-03T07:53:12.325Z,17.71
2023-05-03T07:54:12.334Z,17.12
2023-05-03T07:55:12.451Z,16.76
2023-05-03T07:56:12.395Z,16.16
2023-05-03T07:57:12.323Z,16.36
2023-05-03T07:58:12.401Z,16.41
2023-05-03T07:59:12.299Z,16.32
2023-05-03T08:00:12.271Z,16.41
2023-05-03T08:01:12.300Z,16.08
2023-05-03T08:02:12.429Z,15.42
2023-05-03T08:03:12.523Z,15.52
2023-05-03T08:04:12.533Z,15.47
2023-05-03T08:05:12.327Z,16.10
2023-05-03T08:06:12.393Z,16.66
2023-05-03T08:07:12.219Z,17.24
2023-05-03T08:08:12.318Z,17.16
2023-05-03T08:09:12.218Z,17.05
2023-05-03T08:10:12.346Z,16.31
2023-05-03T08:11:12.199Z,16.21
2023-05-03T08:12:12.190Z,16.64
2023-05-03T08:13:12.191Z,16.51
2023-05-03T08:14:12.170Z,16.36
2023-05-03T08:15:12.200Z,15.90
2023-05-03T08:16:12.171Z,15.94
2023-05-03T08:17:12.156Z,16.75
2023-05-03T08:18:12.152Z,16.87
2023-05-03T08:19:12.138Z,16.32
2023-05-03T08:20:12.179Z,16.17
2023-05-03T08:21:12.188Z,15.59
2023-05-03T08:22:12.113Z,15.59
2023-05-03T08:23:12.239Z,16.08
2023-05-03T08:24:12.832Z,16.26
2023-05-03T08:25:12.157Z,16.56
2023-05-03T08:26:12.091Z,16.71
2023-05-03T08:27:12.078Z,17.23
2023-05-03T08:28:12.081Z,16.81
2023-05-03T08:29:12.087Z,15.84
2023-05-03T08:30:12.091Z,15.54
2023-05-03T08:31:12.094Z,15.27
2023-05-03T08:32:12.044Z,14.84
2023-05-03T08:33:12.092Z,14.92
2023-05-03T08:34:13.069Z,15.44
2023-05-03T08:35:12.068Z,15.64
2023-05-03T08:36:12.020Z,15.86
2023-05-03T08:37:12.013Z,16.33
2023-05-03T08:38:12.001Z,17.41
2023-05-03T08:39:12.041Z,17.74
2023-05-03T08:40:11.982Z,17.78
2023-05-03T08:41:11.980Z,17.02
2023-05-03T08:42:12.004Z,16.51
2023-05-03T08:43:11.963Z,16.05
2023-05-03T08:44:11.980Z,15.27
2023-05-03T08:45:11.968Z,15.52
2023-05-03T08:46:11.999Z,15.80
2023-05-03T08:47:11.929Z,15.91
2023-05-03T08:48:11.973Z,15.98
2023-05-03T08:49:11.939Z,15.72
2023-05-03T08:50:11.940Z,15.40
2023-05-03T08:51:11.899Z,14.94
2023-05-03T08:52:11.894Z,14.92
2023-05-03T08:53:11.905Z,14.82
2023-05-03T08:54:11.902Z,14.72
2023-05-03T08:55:11.895Z,15.25
2023-05-03T08:56:11.859Z,15.25
2023-05-03T08:57:11.857Z,16.02
2023-05-03T08:58:11.916Z,16.64
2023-05-03T08:59:11.866Z,16.61
2023-05-03T09:00:11.828Z,16.54
2023-05-03T09:01:11.853Z,16.60
2023-05-03T09:02:11.873Z,16.79
2023-05-03T09:03:11.985Z,17.06
2023-05-03T09:04:11.921Z,16.93
2023-05-03T09:05:11.800Z,17.33
2023-05-03T09:06:11.804Z,17.31
2023-05-03T09:07:11.830Z,17.05
2023-05-03T09:08:11.828Z,16.43
2023-05-03T09:09:11.761Z,16.00
2023-05-03T09:10:11.760Z,14.84
2023-05-03T09:11:11.799Z,14.12
2023-05-03T09:12:11.741Z,14.32
2023-05-03T09:13:11.784Z,14.77
2023-05-03T09:14:11.733Z,14.89
2023-05-03T09:15:11.756Z,14.48
2023-05-03T09:16:11.868Z,14.63
2023-05-03T09:17:11.711Z,15.03
2023-05-03T09:18:11.926Z,15.07
2023-05-03T09:19:11.906Z,14.84
2023-05-03T09:20:11.688Z,15.06
2023-05-03T09:21:11.671Z,15.24
2023-05-03T09:22:11.667Z,15.02
2023-05-03T09:23:11.713Z,14.82
2023-05-03T09:24:11.652Z,14.18
2023-05-03T09:25:11.669Z,14.35
2023-05-03T09:26:11.653Z,14.47
2023-05-03T09:27:11.623Z,14.58
2023-05-03T09:28:11.647Z,14.63
2023-05-03T09:29:11.604Z,14.65
2023-05-03T09:30:12.614Z,14.73
2023-05-03T09:31:13.343Z,14.65
2023-05-03T09:32:12.629Z,14.69
2023-05-03T09:33:11.695Z,14.50
2023-05-03T09:34:11.581Z,14.44
2023-05-03T09:35:11.572Z,14.17
2023-05-03T09:36:11.610Z,13.97
2023-05-03T09:37:11.551Z,13.67
2023-05-03T09:38:11.626Z,13.67
2023-05-03T09:39:11.611Z,13.89
2023-05-03T09:40:11.533Z,14.25
2023-05-03T09:41:11.526Z,14.60
2023-05-03T09:42:11.513Z,14.84
2023-05-03T09:43:11.627Z,14.91
2023-05-03T09:44:11.501Z,15.04
2023-05-03T09:45:11.490Z,15.19
2023-05-03T09:46:11.533Z,15.06
2023-05-03T09:47:11.482Z,14.84
2023-05-03T09:48:11.566Z,14.60
2023-05-03T09:49:11.488Z,13.99
2023-05-03T09:50:11.449Z,14.03
2023-05-03T09:51:11.563Z,14.23
2023-05-03T09:52:11.442Z,14.30
2023-05-03T09:53:11.442Z,14.37
2023-05-03T09:54:11.467Z,14.26
2023-05-03T09:55:11.425Z,14.28
2023-05-03T09:56:11.411Z,14.20
2023-05-03T09:57:11.395Z,13.92
2023-05-03T09:58:11.407Z,14.04
2023-05-03T09:59:11.478Z,14.10
2023-05-03T10:00:11.524Z,13.83
2023-05-03T10:01:11.407Z,13.79
2023-05-03T10:02:11.371Z,13.59
2023-05-03T10:03:11.358Z,13.13
2023-05-03T10:04:11.449Z,12.97
2023-05-03T10:05:11.355Z,13.15
2023-05-03T10:06:11.366Z,13.13
2023-05-03T10:07:12.497Z,13.39
2023-05-03T10:08:12.317Z,13.50
2023-05-03T10:09:11.329Z,13.59
2023-05-03T10:10:11.304Z,13.57
2023-05-03T10:11:11.290Z,13.72
2023-05-03T10:12:11.280Z,13.85
2023-05-03T10:13:12.386Z,14.12
2023-05-03T10:14:12.286Z,14.03
2023-05-03T10:15:11.327Z,14.04
2023-05-03T10:16:11.288Z,14.32
2023-05-03T10:17:11.355Z,14.51
2023-05-03T10:18:11.263Z,14.36
2023-05-03T10:19:12.132Z,14.35
2023-05-03T10:20:11.211Z,14.20
2023-05-03T10:21:11.211Z,14.18
2023-05-03T10:22:11.202Z,14.07
2023-05-03T10:23:11.214Z,14.50
2023-05-03T10:24:11.181Z,14.60
2023-05-03T10:25:11.802Z,14.54
2023-05-03T10:26:11.160Z,14.48
2023-05-03T10:27:11.156Z,14.53
2023-05-03T10:28:11.179Z,14.55
2023-05-03T10:29:11.146Z,14.47
2023-05-03T10:30:11.144Z,14.14
2023-05-03T10:31:11.177Z,14.20
2023-05-03T10:32:11.118Z,14.32
2023-05-03T10:33:11.172Z,14.44
2023-05-03T10:34:11.105Z,14.66
2023-05-03T10:35:11.101Z,14.60
2023-05-03T10:36:11.098Z,14.54
2023-05-03T10:37:11.113Z,14.12
2023-05-03T10:38:11.094Z,14.07
2023-05-03T10:39:11.054Z,13.97
2023-05-03T10:40:11.052Z,13.96
2023-05-03T10:41:11.035Z,14.33
2023-05-03T10:42:11.031Z,14.72
2023-05-03T10:43:11.027Z,14.81
2023-05-03T10:44:11.048Z,15.24
2023-05-03T10:45:11.007Z,15.43
2023-05-03T10:46:11.011Z,15.54
2023-05-03T10:47:10.981Z,15.64
2023-05-03T10:48:11.104Z,15.54
2023-05-03T10:49:10.966Z,15.58
2023-05-03T10:50:10.959Z,15.29
2023-05-03T10:51:10.958Z,15.35
2023-05-03T10:52:10.942Z,14.96
2023-05-03T10:53:10.962Z,14.88
2023-05-03T10:54:10.934Z,15.02
2023-05-03T10:55:10.917Z,15.03
2023-05-03T10:56:11.071Z,15.03
2023-05-03T10:57:10.902Z,15.22
2023-05-03T10:58:10.932Z,15.40
2023-05-03T10:59:10.888Z,15.21
2023-05-03T11:00:10.879Z,15.19
2023-05-03T11:01:10.919Z,14.88
2023-05-03T11:02:10.866Z,14.81
2023-05-03T11:03:10.919Z,14.96
2023-05-03T11:04:10.940Z,14.92
2023-05-03T11:05:11.107Z,15.00
2023-05-03T11:06:10.870Z,15.02
2023-05-03T11:07:10.825Z,15.33
2023-05-03T11:08:10.844Z,15.35
2023-05-03T11:09:10.810Z,15.54
2023-05-03T11:10:10.807Z,15.80
2023-05-03T11:11:10.801Z,16.12
2023-05-03T11:12:10.787Z,16.41
2023-05-03T11:13:10.826Z,16.53
2023-05-03T11:14:10.781Z,16.68
2023-05-03T11:15:10.773Z,16.58
2023-05-03T11:16:10.820Z,16.58
2023-05-03T11:17:10.765Z,16.42
2023-05-03T11:18:10.808Z,16.71
2023-05-03T11:19:10.763Z,16.61
2023-05-03T11:20:10.731Z,16.54
2023-05-03T11:21:10.727Z,16.43
2023-05-03T11:22:10.807Z,16.21
2023-05-03T11:23:10.708Z,15.84
2023-05-03T11:24:10.733Z,15.95
2023-05-03T11:25:10.743Z,15.98
2023-05-03T11:26:10.680Z,15.90
2023-05-03T11:27:10.705Z,16.08
2023-05-03T11:28:10.680Z,16.10
2023-05-03T11:29:10.724Z,15.82
2023-05-03T11:30:10.648Z,15.77
2023-05-03T11:31:10.636Z,16.01
2023-05-03T11:32:10.843Z,16.12
2023-05-03T11:33:10.642Z,16.42
2023-05-03T11:34:10.645Z,16.71
2023-05-03T11:35:10.743Z,16.68
2023-05-03T11:36:10.602Z,16.56
2023-05-03T11:37:10.591Z,16.56
2023-05-03T11:38:10.596Z,16.33
2023-05-03T11:39:10.642Z,16.21
2023-05-03T11:40:10.579Z,16.35
2023-05-03T11:41:10.570Z,16.32
2023-05-03T11:42:10.575Z,16.10
2023-05-03T11:43:10.591Z,15.82
2023-05-03T11:44:16.896Z,15.84
2023-05-03T11:45:12.575Z,15.73
2023-05-03T11:46:10.652Z,15.91
2023-05-03T11:47:10.626Z,16.04
2023-05-03T11:48:10.550Z,16.23
2023-05-03T11:49:10.559Z,16.32
2023-05-03T11:50:11.025Z,16.28
2023-05-03T11:51:10.512Z,16.36
2023-05-03T11:52:10.541Z,16.50
2023-05-03T11:53:10.492Z,16.38
2023-05-03T11:54:23.983Z,16.12
2023-05-03T11:55:12.607Z,16.15
2023-05-03T11:56:11.482Z,16.33
2023-05-03T11:57:10.438Z,16.57
2023-05-03T11:58:10.430Z,16.10
2023-05-03T11:59:10.449Z,15.84
2023-05-03T12:00:10.502Z,15.90
2023-05-03T12:01:10.465Z,15.97
2023-05-03T12:02:10.561Z,16.00
2023-05-03T12:03:10.516Z,15.83
2023-05-03T12:04:10.654Z,15.84
2023-05-03T12:05:11.142Z,15.98
2023-05-03T12:06:11.349Z,16.21
2023-05-03T12:07:10.862Z,16.26
2023-05-03T12:08:11.912Z,16.17
2023-05-03T12:09:10.548Z,16.42
2023-05-03T12:10:16.965Z,16.42
2023-05-03T12:11:14.110Z,16.47
2023-05-03T12:12:11.645Z,16.50
2023-05-03T12:13:10.757Z,16.69
2023-05-03T12:14:10.782Z,16.71
2023-05-03T12:15:11.842Z,16.65
2023-05-03T12:16:13.667Z,16.78
2023-05-03T12:17:11.637Z,16.96
2023-05-03T12:18:11.621Z,17.08
2023-05-03T12:19:10.524Z,17.08
2023-05-03T12:20:42.044Z,16.86
2023-05-03T12:22:24.988Z,16.66
2023-05-03T12:23:15.428Z,16.79
2023-05-03T12:24:10.955Z,16.83
2023-05-03T12:25:12.880Z,16.84
2023-05-03T12:26:10.369Z,17.04
2023-05-03T12:27:10.267Z,17.08
2023-05-03T12:30:11.480Z,17.41
2023-05-03T12:31:12.908Z,17.65
2023-05-03T12:33:11.269Z,17.82
2023-05-03T12:34:31.912Z,17.98
2023-05-03T12:36:14.437Z,18.13
2023-05-03T12:37:11.496Z,18.19
2023-05-03T12:38:11.322Z,17.67
2023-05-03T12:39:10.592Z,17.46
2023-05-03T12:40:29.640Z,17.59
2023-05-03T12:41:14.596Z,17.67
2023-05-03T12:42:10.201Z,17.76
2023-05-03T12:43:10.213Z,17.54
2023-05-03T12:44:10.960Z,17.59
2023-05-03T12:45:12.532Z,17.67
2023-05-03T12:47:11.323Z,17.90
2023-05-03T12:48:10.224Z,18.04
2023-05-03T12:49:14.390Z,18.16
2023-05-03T12:50:12.368Z,17.71
2023-05-03T12:52:36.486Z,17.09
2023-05-03T12:53:14.999Z,17.24
2023-05-03T12:54:11.116Z,17.27
2023-05-03T12:55:11.849Z,17.26
2023-05-03T12:56:13.476Z,17.09
2023-05-03T12:57:15.050Z,17.11
2023-05-03T12:59:31.735Z,17.34
2023-05-03T13:00:14.923Z,17.42
2023-05-03T13:03:21.021Z,17.16
2023-05-03T13:05:22.100Z,17.36
2023-05-03T13:06:14.537Z,17.51
2023-05-03T13:07:13.293Z,17.67
2023-05-03T13:08:11.061Z,17.76
2023-05-03T13:09:10.338Z,17.70
2023-05-03T13:11:10.951Z,17.48
2023-05-03T13:12:11.105Z,17.38
2023-05-03T13:13:09.852Z,17.24
2023-05-03T13:14:09.860Z,17.29
2023-05-03T13:15:09.827Z,17.39